createdAt,value
2023-05-17T00:00:07.823Z,26.90
2023-05-17T00:02:36.570Z,26.70
2023-05-17T00:05:05.725Z,26.60
2023-05-17T00:07:34.098Z,26.40
2023-05-17T00:10:02.686Z,26.40
2023-05-17T00:12:31.271Z,26.30
2023-05-17T00:14:59.657Z,26.20
2023-05-17T00:17:28.042Z,26.10
2023-05-17T00:19:56.692Z,26.00
2023-05-17T00:22:25.037Z,26.00
2023-05-17T00:24:53.340Z,26.00
2023-05-17T00:27:21.723Z,26.10
2023-05-17T00:29:50.095Z,26.20
2023-05-17T00:32:18.440Z,26.30
2023-05-17T00:34:46.852Z,26.30
2023-05-17T00:37:15.242Z,26.40
2023-05-17T00:39:43.617Z,26.50
2023-05-17T00:42:12.838Z,26.60
2023-05-17T00:44:41.605Z,26.80
2023-05-17T00:47:10.071Z,27.00
2023-05-17T00:49:38.577Z,26.80
2023-05-17T00:52:07.554Z,27.00
2023-05-17T00:54:36.275Z,27.00
2023-05-17T00:57:06.053Z,27.20
2023-05-17T00:59:35.440Z,26.90
2023-05-17T01:02:04.874Z,26.90
2023-05-17T01:04:33.841Z,26.90
2023-05-17T01:07:02.207Z,27.00
2023-05-17T01:09:31.362Z,27.30
2023-05-17T01:12:02.804Z,27.20
2023-05-17T01:14:40.370Z,27.30
2023-05-17T01:17:17.402Z,27.10
2023-05-17T01:19:56.897Z,27.30
2023-05-17T01:23:18.906Z,27.40
2023-05-17T01:26:09.040Z,27.30
2023-05-17T01:28:40.194Z,27.20
2023-05-17T01:31:09.747Z,27.20
2023-05-17T01:33:39.314Z,27.30
2023-05-17T01:36:08.359Z,27.30
2023-05-17T01:38:36.762Z,27.30
2023-05-17T01:41:44.715Z,27.30
2023-05-17T01:44:39.489Z,27.00
2023-05-17T01:47:30.395Z,27.20
2023-05-17T01:50:00.586Z,27.00
2023-05-17T01:52:37.037Z,26.90
2023-05-17T01:55:32.423Z,27.00
2023-05-17T01:58:02.826Z,27.20
2023-05-17T02:00:31.471Z,27.00
2023-05-17T02:03:00.019Z,27.00
2023-05-17T02:05:28.485Z,27.10
2023-05-17T02:07:57.336Z,27.20
2023-05-17T02:10:26.309Z,27.20
2023-05-17T02:12:54.632Z,27.10
2023-05-17T02:15:23.003Z,27.10
2023-05-17T02:17:51.433Z,27.20
2023-05-17T02:20:19.844Z,27.10
2023-05-17T02:22:48.212Z,26.90
2023-05-17T02:25:16.661Z,26.80
2023-05-17T02:27:45.098Z,26.80
2023-05-17T02:30:16.441Z,26.80
2023-05-17T02:32:46.473Z,26.70
2023-05-17T02:35:15.327Z,26.70
2023-05-17T02:37:43.789Z,26.70
2023-05-17T02:40:12.860Z,26.70
2023-05-17T02:42:41.218Z,26.50
2023-05-17T02:45:10.119Z,26.50
2023-05-17T02:47:38.619Z,26.30
2023-05-17T02:50:07.684Z,26.30
2023-05-17T02:52:36.292Z,26.20
2023-05-17T02:55:05.416Z,26.20
2023-05-17T02:57:33.762Z,26.10
2023-05-17T03:00:02.078Z,26.00
2023-05-17T03:02:30.508Z,26.00
2023-05-17T03:04:59.201Z,25.90
2023-05-17T03:07:30.684Z,25.90
2023-05-17T03:09:59.097Z,25.70
2023-05-17T03:12:29.355Z,25.50
2023-05-17T03:15:00.880Z,25.50
2023-05-17T03:17:29.661Z,25.40
2023-05-17T03:19:58.336Z,25.30
2023-05-17T03:22:27.075Z,25.20
2023-05-17T03:24:55.625Z,25.10
2023-05-17T03:27:24.140Z,25.00
2023-05-17T03:29:52.576Z,25.00
2023-05-17T03:32:20.963Z,24.90
2023-05-17T03:34:49.429Z,24.90
2023-05-17T03:37:17.808Z,24.80
2023-05-17T03:39:46.199Z,24.70
2023-05-17T03:42:14.664Z,24.50
2023-05-17T03:44:43.159Z,24.50
2023-05-17T03:47:11.706Z,24.30
2023-05-17T03:49:40.116Z,24.30
2023-05-17T03:52:08.472Z,24.20
2023-05-17T03:54:36.810Z,24.20
2023-05-17T03:57:05.285Z,24.10
2023-05-17T03:59:33.653Z,24.00
2023-05-17T04:02:02.085Z,24.00
2023-05-17T04:04:30.495Z,23.90
2023-05-17T04:06:58.831Z,23.90
2023-05-17T04:09:27.178Z,23.70
2023-05-17T04:11:55.553Z,23.60
2023-05-17T04:14:23.912Z,23.40
2023-05-17T04:16:52.300Z,23.40
2023-05-17T04:19:20.882Z,23.30
2023-05-17T04:21:49.374Z,23.20
2023-05-17T04:24:18.060Z,23.20
2023-05-17T04:26:46.420Z,23.10
2023-05-17T04:29:14.824Z,23.10
2023-05-17T04:31:43.558Z,23.00
2023-05-17T04:34:12.363Z,22.90
2023-05-17T04:36:40.781Z,22.90
2023-05-17T04:39:09.236Z,22.80
2023-05-17T04:41:38.566Z,22.70
2023-05-17T04:44:10.924Z,22.60
2023-05-17T04:46:39.281Z,22.50
2023-05-17T04:49:08.128Z,22.50
2023-05-17T04:51:36.924Z,22.40
2023-05-17T04:54:07.730Z,22.40
2023-05-17T04:56:40.281Z,22.40
2023-05-17T04:59:08.670Z,22.30
2023-05-17T05:01:37.068Z,22.30
2023-05-17T05:04:07.906Z,22.20
2023-05-17T05:06:36.725Z,22.20
2023-05-17T05:09:05.519Z,22.10
2023-05-17T05:11:33.929Z,22.00
2023-05-17T05:14:02.502Z,22.00
2023-05-17T05:16:30.861Z,21.90
2023-05-17T05:18:59.448Z,21.90
2023-05-17T05:21:28.086Z,21.90
2023-05-17T05:23:56.504Z,21.70
2023-05-17T05:26:24.853Z,21.70
2023-05-17T05:28:53.207Z,21.70
2023-05-17T05:31:21.532Z,21.60
2023-05-17T05:33:50.843Z,21.60
2023-05-17T05:36:19.175Z,21.50
2023-05-17T05:38:47.603Z,21.40
2023-05-17T05:41:15.938Z,21.40
2023-05-17T05:43:44.344Z,21.30
2023-05-17T05:46:12.739Z,21.20
2023-05-17T05:48:42.754Z,21.20
2023-05-17T05:51:11.701Z,21.20
2023-05-17T05:53:40.567Z,21.10
2023-05-17T05:56:10.368Z,21.10
2023-05-17T05:58:39.044Z,21.10
2023-05-17T06:01:07.800Z,21.10
2023-05-17T06:03:36.317Z,21.00
2023-05-17T06:06:04.913Z,21.00
2023-05-17T06:08:33.350Z,20.90
2023-05-17T06:11:01.678Z,20.80
2023-05-17T06:13:30.124Z,20.70
2023-05-17T06:16:00.369Z,20.80
2023-05-17T06:18:28.914Z,20.60
2023-05-17T06:20:57.437Z,20.60
2023-05-17T06:23:26.414Z,20.50
2023-05-17T06:25:54.780Z,20.60
2023-05-17T06:28:23.162Z,20.60
2023-05-17T06:30:51.565Z,20.50
2023-05-17T06:33:20.001Z,20.50
2023-05-17T06:38:23.111Z,20.20
2023-05-17T06:40:55.731Z,20.10
2023-05-17T06:43:24.104Z,19.90
2023-05-17T06:45:53.814Z,19.90
2023-05-17T06:48:22.272Z,19.80
2023-05-17T06:50:50.704Z,19.70
2023-05-17T06:53:19.148Z,19.70
2023-05-17T06:55:47.614Z,19.70
2023-05-17T06:58:15.986Z,19.80
2023-05-17T07:00:44.305Z,19.80
2023-05-17T07:03:12.758Z,19.70
2023-05-17T07:05:41.397Z,19.60
2023-05-17T07:08:09.780Z,19.50
2023-05-17T07:10:38.149Z,19.50
2023-05-17T07:13:06.656Z,19.50
2023-05-17T07:15:34.966Z,19.50
2023-05-17T07:18:03.440Z,19.60
2023-05-17T07:20:31.954Z,19.50
2023-05-17T07:23:00.263Z,19.50
2023-05-17T07:25:28.908Z,19.40
2023-05-17T07:27:57.413Z,19.40
2023-05-17T07:30:25.946Z,19.40
2023-05-17T07:32:54.315Z,19.30
2023-05-17T07:35:22.764Z,19.30
2023-05-17T07:37:51.363Z,19.30
2023-05-17T07:40:19.870Z,19.30
2023-05-17T07:42:48.225Z,19.30
2023-05-17T07:45:16.877Z,19.20
2023-05-17T07:47:45.298Z,19.20
2023-05-17T07:50:13.733Z,19.20
2023-05-17T07:52:42.090Z,19.20
2023-05-17T07:55:11.133Z,19.10
2023-05-17T07:57:39.484Z,19.10
2023-05-17T08:00:09.867Z,19.00
2023-05-17T08:02:38.246Z,19.00
2023-05-17T08:05:06.918Z,18.90
2023-05-17T08:07:35.395Z,18.90
2023-05-17T08:10:06.289Z,18.80
2023-05-17T08:12:34.685Z,18.80
2023-05-17T08:15:03.202Z,18.80
2023-05-17T08:17:31.656Z,18.80
2023-05-17T08:20:00.124Z,18.70
2023-05-17T08:22:28.544Z,18.70
2023-05-17T08:24:56.887Z,18.70
2023-05-17T08:27:26.838Z,18.70
2023-05-17T08:29:56.280Z,18.70
2023-05-17T08:32:25.103Z,18.60
2023-05-17T08:34:54.063Z,18.60
2023-05-17T08:37:22.520Z,18.50
2023-05-17T08:39:52.243Z,18.50
2023-05-17T08:42:27.429Z,18.40
2023-05-17T08:44:56.251Z,18.40
2023-05-17T08:47:30.356Z,18.30
2023-05-17T08:50:02.849Z,18.30
2023-05-17T08:52:33.151Z,18.20
2023-05-17T08:55:04.773Z,18.20
2023-05-17T08:57:38.472Z,18.10
2023-05-17T09:00:13.158Z,18.10
2023-05-17T09:02:43.219Z,18.10
2023-05-17T09:05:12.020Z,18.20
2023-05-17T09:07:40.512Z,18.10
2023-05-17T09:10:09.689Z,18.10
2023-05-17T09:12:38.275Z,17.90
2023-05-17T09:15:20.929Z,17.90
2023-05-17T09:17:56.587Z,17.80
2023-05-17T09:20:40.272Z,17.80
2023-05-17T09:23:11.020Z,17.70
2023-05-17T09:25:39.356Z,17.70
2023-05-17T09:28:08.661Z,17.70
2023-05-17T09:30:41.144Z,17.70
2023-05-17T09:33:13.203Z,17.70
2023-05-17T09:35:44.676Z,17.60
2023-05-17T09:38:15.981Z,17.60
2023-05-17T09:40:46.586Z,17.60
2023-05-17T09:43:15.598Z,17.60
2023-05-17T09:45:44.328Z,17.60
2023-05-17T09:48:17.745Z,17.60
2023-05-17T09:50:52.546Z,17.60
2023-05-17T09:53:42.957Z,17.60
2023-05-17T09:56:11.981Z,17.50
2023-05-17T09:58:40.403Z,17.40
2023-05-17T10:01:11.646Z,17.30
2023-05-17T10:03:40.348Z,17.30
2023-05-17T10:06:13.400Z,17.30
2023-05-17T10:08:47.408Z,17.30
2023-05-17T10:11:15.780Z,17.30
2023-05-17T10:13:54.527Z,17.20
2023-05-17T10:16:24.246Z,17.20
2023-05-17T10:18:54.068Z,17.10
2023-05-17T10:21:24.030Z,17.10
2023-05-17T10:23:53.733Z,16.90
2023-05-17T10:26:22.899Z,17.00
2023-05-17T10:28:54.272Z,17.00
2023-05-17T10:31:23.759Z,17.00
2023-05-17T10:33:52.756Z,16.90
2023-05-17T10:36:21.753Z,17.00
2023-05-17T10:38:50.164Z,17.00
2023-05-17T10:41:20.632Z,16.90
2023-05-17T10:43:49.680Z,16.90
2023-05-17T10:46:22.109Z,16.90
2023-05-17T10:48:54.169Z,16.80
2023-05-17T10:51:33.037Z,16.80
2023-05-17T10:54:05.090Z,16.80
2023-05-17T10:56:34.408Z,16.80
2023-05-17T10:59:27.579Z,16.80
2023-05-17T11:02:00.550Z,16.70
2023-05-17T11:04:34.285Z,16.70
2023-05-17T11:07:22.661Z,16.70
2023-05-17T11:10:14.847Z,16.50
2023-05-17T11:12:46.681Z,16.50
2023-05-17T11:15:18.826Z,16.50
2023-05-17T11:17:54.966Z,16.50
2023-05-17T11:20:29.399Z,16.30
2023-05-17T11:23:03.729Z,16.20
2023-05-17T11:25:36.477Z,16.30
2023-05-17T11:28:10.343Z,16.30
2023-05-17T11:30:44.334Z,16.20
2023-05-17T11:33:25.306Z,16.20
2023-05-17T11:36:07.662Z,16.20
2023-05-17T11:38:36.049Z,16.10
2023-05-17T11:43:51.002Z,16.00
2023-05-17T11:46:24.728Z,16.10
2023-05-17T11:48:54.638Z,16.00
2023-05-17T11:51:25.351Z,16.10
2023-05-17T11:53:56.189Z,16.10
2023-05-17T11:56:39.566Z,16.20
2023-05-17T11:59:11.978Z,16.10
2023-05-17T12:01:48.352Z,16.20
2023-05-17T12:04:28.419Z,16.10
2023-05-17T12:06:58.685Z,16.00
2023-05-17T12:09:27.412Z,16.00
2023-05-17T12:11:57.174Z,16.00
2023-05-17T12:14:25.829Z,16.00
2023-05-17T12:16:57.165Z,16.00
2023-05-17T12:19:27.875Z,16.00
2023-05-17T12:22:07.987Z,16.00
2023-05-17T12:24:41.269Z,16.00
2023-05-17T12:27:09.963Z,16.00
2023-05-17T12:29:39.140Z,16.00
2023-05-17T12:32:09.508Z,16.00
2023-05-17T12:34:38.200Z,15.90
2023-05-17T12:37:11.191Z,15.90
2023-05-17T12:39:40.392Z,15.90
2023-05-17T12:42:10.007Z,15.90
2023-05-17T12:44:38.520Z,15.80
2023-05-17T12:47:07.052Z,15.70
2023-05-17T12:49:40.719Z,15.60
2023-05-17T12:52:11.193Z,15.70
2023-05-17T12:54:41.850Z,15.50
2023-05-17T12:57:16.606Z,15.50
2023-05-17T12:59:49.665Z,15.40
2023-05-17T13:02:18.456Z,15.40
2023-05-17T13:04:47.643Z,15.40
2023-05-17T13:07:24.669Z,15.50
2023-05-17T13:09:53.354Z,15.60
2023-05-17T13:12:26.061Z,15.70
2023-05-17T13:14:55.470Z,15.80
2023-05-17T13:17:37.650Z,15.80
2023-05-17T13:20:10.656Z,15.90
2023-05-17T13:22:46.760Z,16.00
2023-05-17T13:25:15.996Z,16.00
2023-05-17T13:27:47.680Z,16.10
2023-05-17T13:30:17.350Z,16.20
2023-05-17T13:32:47.982Z,16.30
2023-05-17T13:35:16.522Z,16.40
2023-05-17T13:37:44.881Z,16.40
2023-05-17T13:40:13.784Z,16.50
2023-05-17T13:42:42.236Z,16.70
2023-05-17T13:45:12.442Z,16.80
2023-05-17T13:47:40.938Z,16.80
2023-05-17T13:50:10.657Z,17.00
2023-05-17T13:52:39.249Z,17.20
2023-05-17T13:55:08.379Z,17.30
2023-05-17T13:57:36.781Z,17.30
2023-05-17T14:00:06.108Z,17.40
2023-05-17T14:02:34.513Z,17.70
2023-05-17T14:05:03.216Z,17.80
2023-05-17T14:07:31.554Z,17.80
2023-05-17T14:09:59.959Z,17.70
2023-05-17T14:12:28.441Z,17.90
2023-05-17T14:14:56.777Z,17.80
2023-05-17T14:17:25.169Z,18.10
2023-05-17T14:19:53.637Z,18.20
2023-05-17T14:22:22.391Z,18.20
2023-05-17T14:24:50.718Z,18.20
2023-05-17T14:27:19.167Z,18.50
2023-05-17T14:29:47.510Z,18.70
2023-05-17T14:32:16.358Z,18.90
2023-05-17T14:34:44.741Z,18.90
2023-05-17T14:37:14.726Z,18.90
2023-05-17T14:39:49.462Z,18.90
2023-05-17T14:42:31.641Z,18.80
2023-05-17T14:45:00.103Z,18.80
2023-05-17T14:47:28.613Z,18.80
2023-05-17T14:49:57.199Z,19.10
2023-05-17T14:52:26.146Z,19.00
2023-05-17T14:54:54.630Z,19.10
2023-05-17T14:57:23.032Z,18.80
2023-05-17T14:59:51.428Z,18.90
2023-05-17T15:02:19.897Z,19.10
2023-05-17T15:04:48.490Z,19.30
2023-05-17T15:07:17.439Z,19.70
2023-05-17T15:09:46.652Z,20.70
2023-05-17T15:12:15.124Z,21.70
2023-05-17T15:14:44.192Z,22.20
2023-05-17T15:17:12.590Z,22.40
2023-05-17T15:19:41.125Z,23.10
2023-05-17T15:22:10.278Z,23.10
2023-05-17T15:24:40.285Z,24.10
2023-05-17T15:27:08.997Z,25.10
2023-05-17T15:29:39.623Z,26.40
2023-05-17T15:32:08.460Z,27.10
2023-05-17T15:34:37.385Z,28.20
2023-05-17T15:37:05.790Z,29.60
2023-05-17T15:39:34.138Z,29.80
2023-05-17T15:42:02.989Z,30.40
2023-05-17T15:44:31.334Z,29.40
2023-05-17T15:47:02.245Z,30.20
2023-05-17T15:49:31.563Z,31.20
2023-05-17T15:52:00.187Z,32.60
2023-05-17T15:54:28.523Z,34.60
2023-05-17T15:56:56.861Z,35.10
2023-05-17T15:59:25.210Z,34.70
2023-05-17T16:01:53.600Z,35.40
2023-05-17T16:04:22.133Z,36.60
2023-05-17T16:09:10.462Z,36.40
2023-05-17T16:11:38.923Z,35.70
2023-05-17T16:14:07.582Z,32.60
2023-05-17T16:16:35.962Z,31.30
2023-05-17T16:19:05.477Z,29.80
2023-05-17T16:21:33.956Z,27.40
2023-05-17T16:24:04.897Z,26.40
2023-05-17T16:26:36.908Z,25.40
2023-05-17T16:29:05.400Z,24.40
2023-05-17T16:31:33.744Z,23.60
2023-05-17T16:34:02.330Z,23.10
2023-05-17T16:36:30.990Z,22.50
2023-05-17T16:38:59.328Z,21.90
2023-05-17T16:41:27.829Z,21.50
2023-05-17T16:43:56.257Z,21.20
2023-05-17T16:46:25.615Z,21.00
2023-05-17T16:48:54.687Z,20.60
2023-05-17T16:51:23.248Z,20.50
2023-05-17T16:53:51.618Z,20.30
2023-05-17T16:56:19.973Z,20.30
2023-05-17T16:58:48.325Z,20.30
2023-05-17T17:01:17.339Z,20.20
2023-05-17T17:03:45.719Z,20.20
2023-05-17T17:06:14.423Z,20.30
2023-05-17T17:08:43.479Z,20.30
2023-05-17T17:11:11.891Z,20.30
2023-05-17T17:13:40.346Z,20.40
2023-05-17T17:16:08.801Z,20.40
2023-05-17T17:18:37.258Z,20.50
2023-05-17T17:21:07.878Z,20.50
2023-05-17T17:23:36.510Z,20.50
2023-05-17T17:26:04.943Z,20.50
2023-05-17T17:28:33.374Z,20.70
2023-05-17T17:31:02.047Z,20.80
2023-05-17T17:33:30.525Z,20.80
2023-05-17T17:35:58.913Z,20.80
2023-05-17T17:38:27.544Z,20.80
2023-05-17T17:40:56.018Z,20.90
2023-05-17T17:43:24.466Z,21.00
2023-05-17T17:45:52.833Z,21.20
2023-05-17T17:48:21.252Z,21.20
2023-05-17T17:50:49.582Z,21.30
2023-05-17T17:53:18.161Z,21.40
2023-05-17T17:55:46.507Z,21.40
2023-05-17T17:58:14.970Z,21.50
2023-05-17T18:00:43.380Z,21.60
2023-05-17T18:03:13.450Z,21.80
2023-05-17T18:05:42.098Z,21.90
2023-05-17T18:08:10.527Z,21.90
2023-05-17T18:10:38.909Z,22.00
2023-05-17T18:13:07.467Z,22.10
2023-05-17T18:15:35.846Z,22.20
2023-05-17T18:18:04.303Z,22.30
2023-05-17T18:20:32.710Z,22.40
2023-05-17T18:23:01.128Z,22.50
2023-05-17T18:25:29.489Z,22.60
2023-05-17T18:27:59.180Z,22.70
2023-05-17T18:30:27.770Z,22.80
2023-05-17T18:32:56.380Z,22.90
2023-05-17T18:35:24.800Z,23.00
2023-05-17T18:37:53.197Z,23.00
2023-05-17T18:40:21.711Z,23.10
2023-05-17T18:42:50.156Z,23.20
2023-05-17T18:45:18.667Z,23.20
2023-05-17T18:47:47.285Z,23.20
2023-05-17T18:50:15.674Z,23.30
2023-05-17T18:52:44.073Z,23.40
2023-05-17T18:55:12.457Z,23.40
2023-05-17T18:57:43.138Z,23.50
2023-05-17T19:00:11.981Z,23.60
2023-05-17T19:02:41.344Z,23.70
2023-05-17T19:05:10.129Z,23.80
2023-05-17T19:07:38.543Z,23.90
2023-05-17T19:10:07.572Z,23.90
2023-05-17T19:12:36.314Z,24.00
2023-05-17T19:15:05.138Z,24.10
2023-05-17T19:17:33.573Z,24.20
2023-05-17T19:20:02.324Z,24.30
2023-05-17T19:22:30.685Z,24.50
2023-05-17T19:24:59.108Z,24.70
2023-05-17T19:27:28.258Z,24.80
2023-05-17T19:29:56.917Z,24.80
2023-05-17T19:32:25.294Z,25.00
2023-05-17T19:34:53.747Z,25.10
2023-05-17T19:37:22.229Z,25.10
2023-05-17T19:39:50.640Z,25.20
2023-05-17T19:42:19.097Z,25.20
2023-05-17T19:44:47.451Z,25.30
2023-05-17T19:47:15.894Z,25.40
2023-05-17T19:49:44.586Z,25.40
2023-05-17T19:52:13.097Z,25.50
2023-05-17T19:54:41.498Z,25.50
2023-05-17T19:57:09.906Z,25.60
2023-05-17T19:59:38.344Z,25.70
2023-05-17T20:02:07.608Z,25.70
2023-05-17T20:04:36.017Z,25.80
2023-05-17T20:07:04.463Z,25.80
2023-05-17T20:09:32.992Z,26.00
2023-05-17T20:12:01.537Z,26.10
2023-05-17T20:14:29.897Z,26.30
2023-05-17T20:16:58.278Z,26.60
2023-05-17T20:19:27.238Z,26.90
2023-05-17T20:21:56.006Z,26.90
2023-05-17T20:24:26.242Z,27.10
2023-05-17T20:26:54.558Z,27.20
2023-05-17T20:29:22.933Z,27.50
2023-05-17T20:31:51.477Z,27.50
2023-05-17T20:34:20.163Z,27.70
2023-05-17T20:36:48.573Z,27.90
2023-05-17T20:39:17.009Z,28.10
2023-05-17T20:41:45.359Z,28.40
2023-05-17T20:44:20.289Z,28.70
2023-05-17T20:46:49.874Z,28.90
2023-05-17T20:49:18.896Z,29.00
2023-05-17T20:51:47.289Z,29.30
2023-05-17T20:54:15.722Z,29.50
2023-05-17T20:56:44.138Z,29.90
2023-05-17T20:59:12.574Z,30.40
2023-05-17T21:01:42.150Z,30.70
2023-05-17T21:04:11.912Z,31.10
2023-05-17T21:06:40.308Z,31.40
2023-05-17T21:09:09.228Z,32.20
2023-05-17T21:11:37.705Z,32.70
2023-05-17T21:14:06.113Z,33.60
2023-05-17T21:16:36.192Z,34.00
2023-05-17T21:19:05.152Z,34.60
2023-05-17T21:21:33.523Z,35.60
2023-05-17T21:24:01.911Z,36.30
2023-05-17T21:26:30.448Z,37.10
2023-05-17T21:28:58.806Z,37.50
2023-05-17T21:31:29.002Z,37.90
2023-05-17T21:33:57.374Z,38.40
2023-05-17T21:36:25.882Z,39.00
2023-05-17T21:38:54.258Z,39.20
2023-05-17T21:41:23.176Z,39.70
2023-05-17T21:43:51.604Z,39.60
2023-05-17T21:46:20.097Z,39.60
2023-05-17T21:48:48.533Z,39.20
2023-05-17T21:51:17.463Z,38.80
2023-05-17T21:53:46.010Z,37.70
2023-05-17T21:56:14.482Z,36.80
2023-05-17T21:58:42.950Z,36.20
2023-05-17T22:01:11.381Z,34.70
2023-05-17T22:03:39.843Z,34.00
2023-05-17T22:06:08.553Z,33.50
2023-05-17T22:08:36.937Z,32.70
2023-05-17T22:11:06.481Z,32.30
2023-05-17T22:13:34.797Z,31.70
2023-05-17T22:16:03.454Z,31.40
2023-05-17T22:18:32.659Z,30.90
2023-05-17T22:21:01.191Z,30.70
2023-05-17T22:23:29.692Z,30.50
2023-05-17T22:26:00.948Z,30.30
2023-05-17T22:28:29.556Z,30.10
2023-05-17T22:30:58.013Z,29.90
2023-05-17T22:33:26.525Z,29.70
2023-05-17T22:35:54.964Z,29.60
2023-05-17T22:38:26.639Z,29.40
2023-05-17T22:40:55.456Z,29.40
2023-05-17T22:43:23.840Z,29.40
2023-05-17T22:45:53.009Z,29.30
2023-05-17T22:48:21.408Z,29.30
2023-05-17T22:50:51.385Z,29.20
2023-05-17T22:53:19.968Z,29.20
2023-05-17T22:55:49.728Z,29.00
2023-05-17T22:58:18.272Z,28.90
2023-05-17T23:00:46.874Z,28.90
2023-05-17T23:03:15.591Z,28.90
2023-05-17T23:05:44.311Z,28.70
2023-05-17T23:08:14.286Z,28.60
2023-05-17T23:10:46.180Z,28.70
2023-05-17T23:13:14.752Z,28.70
2023-05-17T23:15:47.517Z,28.90
2023-05-17T23:18:16.828Z,28.90
2023-05-17T23:20:46.999Z,28.90
2023-05-17T23:23:16.432Z,29.00
2023-05-17T23:25:49.135Z,28.90
2023-05-17T23:28:19.065Z,29.10
2023-05-17T23:30:49.387Z,29.10
2023-05-17T23:33:19.668Z,29.10
2023-05-17T23:35:48.065Z,29.10
2023-05-17T23:38:16.521Z,29.10
2023-05-17T23:40:45.096Z,29.10
2023-05-17T23:43:13.559Z,29.10
2023-05-17T23:45:42.181Z,29.10
2023-05-17T23:48:10.618Z,29.10
2023-05-17T23:50:39.082Z,29.00
2023-05-17T23:53:10.286Z,29.10
2023-05-17T23:55:39.296Z,29.20
2023-05-17T23:58:07.757Z,29.20
